sensor_id;sensor_type;location;lat;lon;timestamp;temperature;humidity
22532;DHT22;11432;46.924;7.114;2022-12-20T00:01:16;1.30;99.90
22532;DHT22;11432;46.924;7.114;2022-12-20T00:03:43;1.30;99.90
22532;DHT22;11432;46.924;7.114;2022-12-20T00:06:10;1.30;99.90
22532;DHT22;11432;46.924;7.114;2022-12-20T00:08:36;1.30;99.90
22532;DHT22;11432;46.924;7.114;2022-12-20T00:11:05;1.30;99.90
22532;DHT22;11432;46.924;7.114;2022-12-20T00:13:31;1.30;99.90
22532;DHT22;11432;46.924;7.114;2022-12-20T00:18:34;1.10;99.90
22532;DHT22;11432;46.924;7.114;2022-12-20T00:21:01;1.20;99.90
22532;DHT22;11432;46.924;7.114;2022-12-20T00:23:27;1.10;99.90
22532;DHT22;11432;46.924;7.114;2022-12-20T00:26:09;1.10;99.90
22532;DHT22;11432;46.924;7.114;2022-12-20T00:28:36;1.10;99.90
22532;DHT22;11432;46.924;7.114;2022-12-20T00:31:03;1.10;99.90
22532;DHT22;11432;46.924;7.114;2022-12-20T00:33:29;1.10;99.90
22532;DHT22;11432;46.924;7.114;2022-12-20T00:35:56;1.20;99.90
22532;DHT22;11432;46.924;7.114;2022-12-20T00:38:23;1.30;99.90
22532;DHT22;11432;46.924;7.114;2022-12-20T00:43:27;1.30;99.90
22532;DHT22;11432;46.924;7.114;2022-12-20T00:45:53;1.20;99.90
22532;DHT22;11432;46.924;7.114;2022-12-20T00:48:19;1.20;99.90
22532;DHT22;11432;46.924;7.114;2022-12-20T00:50:45;1.20;99.90
22532;DHT22;11432;46.924;7.114;2022-12-20T00:53:10;1.20;99.90
22532;DHT22;11432;46.924;7.114;2022-12-20T00:55:43;1.20;99.90
22532;DHT22;11432;46.924;7.114;2022-12-20T00:58:09;1.20;99.90
22532;DHT22;11432;46.924;7.114;2022-12-20T01:00:35;1.20;99.90
22532;DHT22;11432;46.924;7.114;2022-12-20T01:03:01;1.30;99.90
22532;DHT22;11432;46.924;7.114;2022-12-20T01:05:27;1.40;99.90
22532;DHT22;11432;46.924;7.114;2022-12-20T01:07:52;1.70;99.90
22532;DHT22;11432;46.924;7.114;2022-12-20T01:10:18;1.80;99.90
22532;DHT22;11432;46.924;7.114;2022-12-20T01:12:43;1.80;99.90
22532;DHT22;11432;46.924;7.114;2022-12-20T01:15:10;1.90;99.90
22532;DHT22;11432;46.924;7.114;2022-12-20T01:17:35;1.90;99.90
22532;DHT22;11432;46.924;7.114;2022-12-20T01:20:01;1.90;99.90
22532;DHT22;11432;46.924;7.114;2022-12-20T01:22:27;1.80;99.90
22532;DHT22;11432;46.924;7.114;2022-12-20T01:24:52;1.80;99.90
22532;DHT22;11432;46.924;7.114;2022-12-20T01:27:18;1.80;99.90
22532;DHT22;11432;46.924;7.114;2022-12-20T01:29:43;1.70;99.90
22532;DHT22;11432;46.924;7.114;2022-12-20T01:32:09;1.70;99.90
22532;DHT22;11432;46.924;7.114;2022-12-20T01:34:34;1.60;99.90
22532;DHT22;11432;46.924;7.114;2022-12-20T01:37:00;1.50;99.90
22532;DHT22;11432;46.924;7.114;2022-12-20T01:39:26;1.50;99.90
22532;DHT22;11432;46.924;7.114;2022-12-20T01:41:51;1.40;99.90
22532;DHT22;11432;46.924;7.114;2022-12-20T01:46:46;1.30;99.90
22532;DHT22;11432;46.924;7.114;2022-12-20T01:49:49;1.30;99.90
22532;DHT22;11432;46.924;7.114;2022-12-20T01:54:40;1.20;99.90
22532;DHT22;11432;46.924;7.114;2022-12-20T01:57:14;1.20;99.90
22532;DHT22;11432;46.924;7.114;2022-12-20T01:59:42;1.10;99.90
22532;DHT22;11432;46.924;7.114;2022-12-20T02:02:10;1.10;99.90
22532;DHT22;11432;46.924;7.114;2022-12-20T02:04:36;1.10;99.90
22532;DHT22;11432;46.924;7.114;2022-12-20T02:07:03;1.10;99.90
22532;DHT22;11432;46.924;7.114;2022-12-20T02:09:29;1.00;99.90
22532;DHT22;11432;46.924;7.114;2022-12-20T02:12:11;1.00;99.90
22532;DHT22;11432;46.924;7.114;2022-12-20T02:14:46;1.00;99.90
22532;DHT22;11432;46.924;7.114;2022-12-20T02:20:30;0.90;99.90
22532;DHT22;11432;46.924;7.114;2022-12-20T02:29:01;1.00;99.90
22532;DHT22;11432;46.924;7.114;2022-12-20T02:31:37;1.00;99.90
22532;DHT22;11432;46.924;7.114;2022-12-20T02:34:05;1.00;99.90
22532;DHT22;11432;46.924;7.114;2022-12-20T02:36:31;1.00;99.90
22532;DHT22;11432;46.924;7.114;2022-12-20T02:38:57;1.00;99.90
22532;DHT22;11432;46.924;7.114;2022-12-20T02:41:33;1.00;99.90
22532;DHT22;11432;46.924;7.114;2022-12-20T02:44:06;1.00;99.90
22532;DHT22;11432;46.924;7.114;2022-12-20T02:46:53;1.00;99.90
22532;DHT22;11432;46.924;7.114;2022-12-20T02:49:24;1.00;99.90
22532;DHT22;11432;46.924;7.114;2022-12-20T02:51:51;1.00;99.90
22532;DHT22;11432;46.924;7.114;2022-12-20T02:54:18;1.10;99.90
22532;DHT22;11432;46.924;7.114;2022-12-20T02:59:21;1.00;99.90
22532;DHT22;11432;46.924;7.114;2022-12-20T03:01:53;1.10;99.90
22532;DHT22;11432;46.924;7.114;2022-12-20T03:04:23;1.10;99.90
22532;DHT22;11432;46.924;7.114;2022-12-20T03:07:05;1.20;99.90
22532;DHT22;11432;46.924;7.114;2022-12-20T03:09:33;1.20;99.90
22532;DHT22;11432;46.924;7.114;2022-12-20T03:12:00;1.20;99.90
22532;DHT22;11432;46.924;7.114;2022-12-20T03:14:25;1.30;99.90
22532;DHT22;11432;46.924;7.114;2022-12-20T03:16:51;1.20;99.90
22532;DHT22;11432;46.924;7.114;2022-12-20T03:19:17;1.20;99.90
22532;DHT22;11432;46.924;7.114;2022-12-20T03:21:43;1.20;99.90
22532;DHT22;11432;46.924;7.114;2022-12-20T03:24:09;1.20;99.90
22532;DHT22;11432;46.924;7.114;2022-12-20T03:26:36;1.10;99.90
22532;DHT22;11432;46.924;7.114;2022-12-20T03:29:02;1.20;99.90
22532;DHT22;11432;46.924;7.114;2022-12-20T03:31:28;1.20;99.90
22532;DHT22;11432;46.924;7.114;2022-12-20T03:33:54;1.20;99.90
22532;DHT22;11432;46.924;7.114;2022-12-20T03:36:19;1.20;99.90
22532;DHT22;11432;46.924;7.114;2022-12-20T03:38:51;1.20;99.90
22532;DHT22;11432;46.924;7.114;2022-12-20T03:41:18;1.10;99.90
22532;DHT22;11432;46.924;7.114;2022-12-20T03:43:46;1.10;99.90
22532;DHT22;11432;46.924;7.114;2022-12-20T03:46:12;1.10;99.90
22532;DHT22;11432;46.924;7.114;2022-12-20T03:48:38;1.00;99.90
22532;DHT22;11432;46.924;7.114;2022-12-20T03:51:03;1.00;99.90
22532;DHT22;11432;46.924;7.114;2022-12-20T03:53:29;1.00;99.90
22532;DHT22;11432;46.924;7.114;2022-12-20T03:55:55;1.00;99.90
22532;DHT22;11432;46.924;7.114;2022-12-20T03:58:20;1.00;99.90
22532;DHT22;11432;46.924;7.114;2022-12-20T04:00:46;1.00;99.90
22532;DHT22;11432;46.924;7.114;2022-12-20T04:03:12;1.10;99.90
22532;DHT22;11432;46.924;7.114;2022-12-20T04:05:38;1.00;99.90
22532;DHT22;11432;46.924;7.114;2022-12-20T04:08:03;1.00;99.90
22532;DHT22;11432;46.924;7.114;2022-12-20T04:10:29;1.00;99.90
22532;DHT22;11432;46.924;7.114;2022-12-20T04:12:54;0.90;99.90
22532;DHT22;11432;46.924;7.114;2022-12-20T04:15:20;0.90;99.90
22532;DHT22;11432;46.924;7.114;2022-12-20T04:17:46;0.90;99.90
22532;DHT22;11432;46.924;7.114;2022-12-20T04:20:15;0.90;99.90
22532;DHT22;11432;46.924;7.114;2022-12-20T04:22:48;1.00;99.90
22532;DHT22;11432;46.924;7.114;2022-12-20T04:25:16;0.90;99.90
22532;DHT22;11432;46.924;7.114;2022-12-20T04:27:42;0.90;99.90
22532;DHT22;11432;46.924;7.114;2022-12-20T04:30:08;0.90;99.90
22532;DHT22;11432;46.924;7.114;2022-12-20T04:32:34;1.00;99.90
22532;DHT22;11432;46.924;7.114;2022-12-20T04:35:00;0.90;99.90
22532;DHT22;11432;46.924;7.114;2022-12-20T04:37:26;0.80;99.90
22532;DHT22;11432;46.924;7.114;2022-12-20T04:39:51;0.80;99.90
22532;DHT22;11432;46.924;7.114;2022-12-20T04:42:17;0.80;99.90
22532;DHT22;11432;46.924;7.114;2022-12-20T04:44:43;0.80;99.90
22532;DHT22;11432;46.924;7.114;2022-12-20T04:47:08;0.80;99.90
22532;DHT22;11432;46.924;7.114;2022-12-20T04:49:34;0.80;99.90
22532;DHT22;11432;46.924;7.114;2022-12-20T04:52:00;0.80;99.90
22532;DHT22;11432;46.924;7.114;2022-12-20T04:54:46;0.80;99.90
22532;DHT22;11432;46.924;7.114;2022-12-20T04:57:12;0.80;99.90
22532;DHT22;11432;46.924;7.114;2022-12-20T04:59:38;0.90;99.90
22532;DHT22;11432;46.924;7.114;2022-12-20T05:02:03;0.90;99.90
22532;DHT22;11432;46.924;7.114;2022-12-20T05:04:29;0.90;99.90
22532;DHT22;11432;46.924;7.114;2022-12-20T05:06:55;0.90;99.90
22532;DHT22;11432;46.924;7.114;2022-12-20T05:09:21;0.80;99.90
22532;DHT22;11432;46.924;7.114;2022-12-20T05:11:46;0.80;99.90
22532;DHT22;11432;46.924;7.114;2022-12-20T05:14:12;0.80;99.90
22532;DHT22;11432;46.924;7.114;2022-12-20T05:16:37;0.80;99.90
22532;DHT22;11432;46.924;7.114;2022-12-20T05:19:03;0.80;99.90
22532;DHT22;11432;46.924;7.114;2022-12-20T05:21:29;0.70;99.90
22532;DHT22;11432;46.924;7.114;2022-12-20T05:24:14;0.80;99.90
22532;DHT22;11432;46.924;7.114;2022-12-20T05:26:59;0.70;99.90
22532;DHT22;11432;46.924;7.114;2022-12-20T05:29:25;0.60;99.90
22532;DHT22;11432;46.924;7.114;2022-12-20T05:31:51;0.60;99.90
22532;DHT22;11432;46.924;7.114;2022-12-20T05:34:17;0.60;99.90
22532;DHT22;11432;46.924;7.114;2022-12-20T05:36:42;0.50;99.90
22532;DHT22;11432;46.924;7.114;2022-12-20T05:39:09;0.50;99.90
22532;DHT22;11432;46.924;7.114;2022-12-20T05:41:38;0.50;99.90
22532;DHT22;11432;46.924;7.114;2022-12-20T05:44:06;0.50;99.90
22532;DHT22;11432;46.924;7.114;2022-12-20T05:46:31;0.50;99.90
22532;DHT22;11432;46.924;7.114;2022-12-20T05:48:57;0.60;99.90
22532;DHT22;11432;46.924;7.114;2022-12-20T05:51:23;0.70;99.90
22532;DHT22;11432;46.924;7.114;2022-12-20T05:53:48;0.70;99.90
22532;DHT22;11432;46.924;7.114;2022-12-20T05:56:15;0.70;99.90
22532;DHT22;11432;46.924;7.114;2022-12-20T05:58:40;0.60;99.90
22532;DHT22;11432;46.924;7.114;2022-12-20T06:01:07;0.50;99.90
22532;DHT22;11432;46.924;7.114;2022-12-20T06:03:33;0.50;99.90
22532;DHT22;11432;46.924;7.114;2022-12-20T06:05:59;0.50;99.90
22532;DHT22;11432;46.924;7.114;2022-12-20T06:08:24;0.60;99.90
22532;DHT22;11432;46.924;7.114;2022-12-20T06:10:50;0.60;99.90
22532;DHT22;11432;46.924;7.114;2022-12-20T06:13:16;0.60;99.90
22532;DHT22;11432;46.924;7.114;2022-12-20T06:15:42;0.50;99.90
22532;DHT22;11432;46.924;7.114;2022-12-20T06:18:08;0.60;99.90
22532;DHT22;11432;46.924;7.114;2022-12-20T06:20:34;0.60;99.90
22532;DHT22;11432;46.924;7.114;2022-12-20T06:23:00;0.60;99.90
22532;DHT22;11432;46.924;7.114;2022-12-20T06:25:27;0.60;99.90
22532;DHT22;11432;46.924;7.114;2022-12-20T06:27:52;0.60;99.90
22532;DHT22;11432;46.924;7.114;2022-12-20T06:30:19;0.60;99.90
22532;DHT22;11432;46.924;7.114;2022-12-20T06:32:45;0.60;99.90
22532;DHT22;11432;46.924;7.114;2022-12-20T06:35:10;0.60;99.90
22532;DHT22;11432;46.924;7.114;2022-12-20T06:37:36;0.60;99.90
22532;DHT22;11432;46.924;7.114;2022-12-20T06:40:06;0.70;99.90
22532;DHT22;11432;46.924;7.114;2022-12-20T06:42:31;0.70;99.90
22532;DHT22;11432;46.924;7.114;2022-12-20T06:44:57;0.70;99.90
22532;DHT22;11432;46.924;7.114;2022-12-20T06:47:22;0.70;99.90
22532;DHT22;11432;46.924;7.114;2022-12-20T06:49:48;0.70;99.90
22532;DHT22;11432;46.924;7.114;2022-12-20T06:52:14;0.70;99.90
22532;DHT22;11432;46.924;7.114;2022-12-20T06:54:39;0.70;99.90
22532;DHT22;11432;46.924;7.114;2022-12-20T06:57:05;0.70;99.90
22532;DHT22;11432;46.924;7.114;2022-12-20T06:59:31;0.70;99.90
22532;DHT22;11432;46.924;7.114;2022-12-20T07:01:57;0.70;99.90
22532;DHT22;11432;46.924;7.114;2022-12-20T07:04:22;0.70;99.90
22532;DHT22;11432;46.924;7.114;2022-12-20T07:06:48;0.70;99.90
22532;DHT22;11432;46.924;7.114;2022-12-20T07:09:13;0.80;99.90
22532;DHT22;11432;46.924;7.114;2022-12-20T07:11:39;0.70;99.90
22532;DHT22;11432;46.924;7.114;2022-12-20T07:14:07;0.70;99.90
22532;DHT22;11432;46.924;7.114;2022-12-20T07:16:33;0.80;99.90
22532;DHT22;11432;46.924;7.114;2022-12-20T07:19:00;0.80;99.90
22532;DHT22;11432;46.924;7.114;2022-12-20T07:21:26;0.90;99.90
22532;DHT22;11432;46.924;7.114;2022-12-20T07:23:51;1.00;99.90
22532;DHT22;11432;46.924;7.114;2022-12-20T07:26:19;1.00;99.90
22532;DHT22;11432;46.924;7.114;2022-12-20T07:28:44;1.10;99.90
22532;DHT22;11432;46.924;7.114;2022-12-20T07:31:10;1.60;99.90
22532;DHT22;11432;46.924;7.114;2022-12-20T07:33:36;1.50;99.90
22532;DHT22;11432;46.924;7.114;2022-12-20T07:36:02;1.50;99.90
22532;DHT22;11432;46.924;7.114;2022-12-20T07:38:28;1.50;99.90
22532;DHT22;11432;46.924;7.114;2022-12-20T07:40:54;1.60;99.90
22532;DHT22;11432;46.924;7.114;2022-12-20T07:43:20;1.60;99.90
22532;DHT22;11432;46.924;7.114;2022-12-20T07:45:45;1.60;99.90
22532;DHT22;11432;46.924;7.114;2022-12-20T07:48:11;1.70;99.90
22532;DHT22;11432;46.924;7.114;2022-12-20T07:50:38;1.70;99.90
22532;DHT22;11432;46.924;7.114;2022-12-20T07:53:05;1.70;99.90
22532;DHT22;11432;46.924;7.114;2022-12-20T07:55:32;1.70;99.90
22532;DHT22;11432;46.924;7.114;2022-12-20T07:58:01;1.80;99.90
22532;DHT22;11432;46.924;7.114;2022-12-20T08:00:29;1.80;99.90
22532;DHT22;11432;46.924;7.114;2022-12-20T08:03:07;1.80;99.90
22532;DHT22;11432;46.924;7.114;2022-12-20T08:05:36;1.90;99.90
22532;DHT22;11432;46.924;7.114;2022-12-20T08:08:04;1.90;99.90
22532;DHT22;11432;46.924;7.114;2022-12-20T08:10:30;2.00;99.90
22532;DHT22;11432;46.924;7.114;2022-12-20T08:12:57;2.00;99.90
22532;DHT22;11432;46.924;7.114;2022-12-20T08:15:23;2.00;99.90
22532;DHT22;11432;46.924;7.114;2022-12-20T08:17:49;2.10;99.90
22532;DHT22;11432;46.924;7.114;2022-12-20T08:20:15;2.20;99.90
22532;DHT22;11432;46.924;7.114;2022-12-20T08:22:40;2.30;99.90
22532;DHT22;11432;46.924;7.114;2022-12-20T08:25:07;2.40;99.90
22532;DHT22;11432;46.924;7.114;2022-12-20T08:27:32;2.50;99.90
22532;DHT22;11432;46.924;7.114;2022-12-20T08:29:58;2.60;99.90
22532;DHT22;11432;46.924;7.114;2022-12-20T08:32:24;2.60;99.90
22532;DHT22;11432;46.924;7.114;2022-12-20T08:34:51;2.70;99.90
22532;DHT22;11432;46.924;7.114;2022-12-20T08:37:17;2.80;99.90
22532;DHT22;11432;46.924;7.114;2022-12-20T08:39:43;2.90;99.90
22532;DHT22;11432;46.924;7.114;2022-12-20T08:42:09;3.00;99.90
22532;DHT22;11432;46.924;7.114;2022-12-20T08:44:35;3.10;99.90
22532;DHT22;11432;46.924;7.114;2022-12-20T08:47:00;3.20;99.90
22532;DHT22;11432;46.924;7.114;2022-12-20T08:49:26;3.30;99.90
22532;DHT22;11432;46.924;7.114;2022-12-20T08:51:51;3.30;99.90
22532;DHT22;11432;46.924;7.114;2022-12-20T08:54:17;3.20;99.90
22532;DHT22;11432;46.924;7.114;2022-12-20T08:56:42;3.30;99.90
22532;DHT22;11432;46.924;7.114;2022-12-20T08:59:08;3.40;99.90
22532;DHT22;11432;46.924;7.114;2022-12-20T09:01:34;3.40;99.90
22532;DHT22;11432;46.924;7.114;2022-12-20T09:03:59;3.50;99.90
22532;DHT22;11432;46.924;7.114;2022-12-20T09:06:25;3.40;99.90
22532;DHT22;11432;46.924;7.114;2022-12-20T09:08:51;3.40;99.90
22532;DHT22;11432;46.924;7.114;2022-12-20T09:11:18;3.50;99.90
22532;DHT22;11432;46.924;7.114;2022-12-20T09:13:45;3.50;99.90
22532;DHT22;11432;46.924;7.114;2022-12-20T09:16:13;3.60;99.90
22532;DHT22;11432;46.924;7.114;2022-12-20T09:18:40;3.70;99.90
22532;DHT22;11432;46.924;7.114;2022-12-20T09:21:06;3.80;99.90
22532;DHT22;11432;46.924;7.114;2022-12-20T09:23:33;3.80;99.90
22532;DHT22;11432;46.924;7.114;2022-12-20T09:26:04;3.90;99.90
22532;DHT22;11432;46.924;7.114;2022-12-20T09:28:31;3.90;99.90
22532;DHT22;11432;46.924;7.114;2022-12-20T09:31:00;3.90;99.90
22532;DHT22;11432;46.924;7.114;2022-12-20T09:33:27;4.00;99.90
22532;DHT22;11432;46.924;7.114;2022-12-20T09:35:53;4.10;99.90
22532;DHT22;11432;46.924;7.114;2022-12-20T09:38:19;4.20;99.90
22532;DHT22;11432;46.924;7.114;2022-12-20T09:40:46;4.20;99.90
22532;DHT22;11432;46.924;7.114;2022-12-20T09:43:13;4.20;99.90
22532;DHT22;11432;46.924;7.114;2022-12-20T09:46:02;4.30;99.90
22532;DHT22;11432;46.924;7.114;2022-12-20T09:48:32;4.20;99.90
22532;DHT22;11432;46.924;7.114;2022-12-20T09:59:05;4.20;99.90
22532;DHT22;11432;46.924;7.114;2022-12-20T10:01:33;4.30;99.90
22532;DHT22;11432;46.924;7.114;2022-12-20T10:04:05;4.50;99.90
22532;DHT22;11432;46.924;7.114;2022-12-20T10:10:08;5.00;99.90
22532;DHT22;11432;46.924;7.114;2022-12-20T10:15:19;5.10;99.90
22532;DHT22;11432;46.924;7.114;2022-12-20T10:18:38;5.20;99.90
22532;DHT22;11432;46.924;7.114;2022-12-20T10:25:56;5.00;99.90
22532;DHT22;11432;46.924;7.114;2022-12-20T10:28:27;5.10;99.90
22532;DHT22;11432;46.924;7.114;2022-12-20T10:30:53;5.10;99.90
22532;DHT22;11432;46.924;7.114;2022-12-20T10:33:23;5.10;99.90
22532;DHT22;11432;46.924;7.114;2022-12-20T10:35:49;5.10;99.90
22532;DHT22;11432;46.924;7.114;2022-12-20T10:38:16;5.20;99.90
22532;DHT22;11432;46.924;7.114;2022-12-20T10:40:46;5.20;99.90
22532;DHT22;11432;46.924;7.114;2022-12-20T10:43:16;5.40;99.90
22532;DHT22;11432;46.924;7.114;2022-12-20T10:45:43;6.10;99.90
22532;DHT22;11432;46.924;7.114;2022-12-20T10:48:32;7.10;99.90
22532;DHT22;11432;46.924;7.114;2022-12-20T10:53:26;9.60;1.00
22532;DHT22;11432;46.924;7.114;2022-12-20T10:55:54;8.80;1.00
22532;DHT22;11432;46.924;7.114;2022-12-20T10:58:21;8.10;1.00
22532;DHT22;11432;46.924;7.114;2022-12-20T11:01:14;8.20;99.90
22532;DHT22;11432;46.924;7.114;2022-12-20T11:03:54;8.40;1.00
22532;DHT22;11432;46.924;7.114;2022-12-20T11:06:24;8.90;1.00
22532;DHT22;11432;46.924;7.114;2022-12-20T11:08:51;9.20;1.00
22532;DHT22;11432;46.924;7.114;2022-12-20T11:11:22;9.60;99.90
22532;DHT22;11432;46.924;7.114;2022-12-20T11:13:50;9.90;1.00
22532;DHT22;11432;46.924;7.114;2022-12-20T11:16:33;10.60;1.00
22532;DHT22;11432;46.924;7.114;2022-12-20T11:21:57;12.30;1.00
22532;DHT22;11432;46.924;7.114;2022-12-20T11:24:31;12.30;1.00
22532;DHT22;11432;46.924;7.114;2022-12-20T11:27:08;11.20;1.00
22532;DHT22;11432;46.924;7.114;2022-12-20T11:37:55;9.70;1.00
22532;DHT22;11432;46.924;7.114;2022-12-20T11:48:25;10.80;1.00
22532;DHT22;11432;46.924;7.114;2022-12-20T11:51:18;11.10;1.00
22532;DHT22;11432;46.924;7.114;2022-12-20T11:56:36;8.70;99.90
22532;DHT22;11432;46.924;7.114;2022-12-20T12:04:37;12.20;29.40
22532;DHT22;11432;46.924;7.114;2022-12-20T12:07:14;12.70;1.00
22532;DHT22;11432;46.924;7.114;2022-12-20T12:09:58;12.40;1.00
22532;DHT22;11432;46.924;7.114;2022-12-20T12:12:33;10.90;99.90
22532;DHT22;11432;46.924;7.114;2022-12-20T12:17:41;8.90;20.30
22532;DHT22;11432;46.924;7.114;2022-12-20T12:23:00;8.00;1.00
22532;DHT22;11432;46.924;7.114;2022-12-20T12:25:27;7.80;1.00
22532;DHT22;11432;46.924;7.114;2022-12-20T12:27:53;8.10;1.00
22532;DHT22;11432;46.924;7.114;2022-12-20T12:30:18;8.10;1.00
22532;DHT22;11432;46.924;7.114;2022-12-20T12:32:56;8.40;1.00
22532;DHT22;11432;46.924;7.114;2022-12-20T12:35:44;9.60;99.90
22532;DHT22;11432;46.924;7.114;2022-12-20T12:46:15;12.50;1.00
22532;DHT22;11432;46.924;7.114;2022-12-20T12:48:55;12.70;1.00
22532;DHT22;11432;46.924;7.114;2022-12-20T12:51:33;11.40;1.00
22532;DHT22;11432;46.924;7.114;2022-12-20T12:54:04;12.40;1.00
22532;DHT22;11432;46.924;7.114;2022-12-20T12:56:40;13.60;1.00
22532;DHT22;11432;46.924;7.114;2022-12-20T13:04:30;14.60;1.00
22532;DHT22;11432;46.924;7.114;2022-12-20T13:07:47;14.90;1.00
22532;DHT22;11432;46.924;7.114;2022-12-20T13:20:30;13.00;1.00
22532;DHT22;11432;46.924;7.114;2022-12-20T13:25:41;11.20;1.00
22532;DHT22;11432;46.924;7.114;2022-12-20T13:30:47;10.00;1.00
22532;DHT22;11432;46.924;7.114;2022-12-20T13:41:31;9.60;99.90
22532;DHT22;11432;46.924;7.114;2022-12-20T13:44:47;9.50;99.90
22532;DHT22;11432;46.924;7.114;2022-12-20T13:47:17;9.50;1.00
22532;DHT22;11432;46.924;7.114;2022-12-20T13:49:47;9.10;1.00
22532;DHT22;11432;46.924;7.114;2022-12-20T13:54:53;8.80;1.00
22532;DHT22;11432;46.924;7.114;2022-12-20T13:59:56;8.60;1.00
22532;DHT22;11432;46.924;7.114;2022-12-20T14:02:26;8.60;1.00
22532;DHT22;11432;46.924;7.114;2022-12-20T14:04:58;8.60;99.90
22532;DHT22;11432;46.924;7.114;2022-12-20T14:07:26;8.70;99.90
22532;DHT22;11432;46.924;7.114;2022-12-20T14:09:58;8.70;99.90
22532;DHT22;11432;46.924;7.114;2022-12-20T14:12:24;8.60;99.90
22532;DHT22;11432;46.924;7.114;2022-12-20T14:14:50;8.60;1.00
22532;DHT22;11432;46.924;7.114;2022-12-20T14:17:27;8.40;99.90
22532;DHT22;11432;46.924;7.114;2022-12-20T14:25:43;8.50;1.00
22532;DHT22;11432;46.924;7.114;2022-12-20T14:28:35;8.50;1.00
22532;DHT22;11432;46.924;7.114;2022-12-20T14:31:03;8.60;1.00
22532;DHT22;11432;46.924;7.114;2022-12-20T14:33:36;8.60;1.00
22532;DHT22;11432;46.924;7.114;2022-12-20T14:38:40;8.60;1.00
22532;DHT22;11432;46.924;7.114;2022-12-20T14:41:42;8.60;1.00
22532;DHT22;11432;46.924;7.114;2022-12-20T14:44:20;8.50;1.00
22532;DHT22;11432;46.924;7.114;2022-12-20T14:46:51;8.40;1.00
22532;DHT22;11432;46.924;7.114;2022-12-20T14:49:28;8.30;1.00
22532;DHT22;11432;46.924;7.114;2022-12-20T15:13:23;7.90;1.00
22532;DHT22;11432;46.924;7.114;2022-12-20T15:15:49;7.80;1.00
22532;DHT22;11432;46.924;7.114;2022-12-20T15:18:17;7.70;1.00
22532;DHT22;11432;46.924;7.114;2022-12-20T15:20:45;7.70;1.40
22532;DHT22;11432;46.924;7.114;2022-12-20T15:23:15;7.60;12.70
22532;DHT22;11432;46.924;7.114;2022-12-20T15:25:41;7.60;35.00
22532;DHT22;11432;46.924;7.114;2022-12-20T15:28:12;7.60;40.90
22532;DHT22;11432;46.924;7.114;2022-12-20T15:30:38;7.50;26.60
22532;DHT22;11432;46.924;7.114;2022-12-20T15:33:04;7.50;11.40
22532;DHT22;11432;46.924;7.114;2022-12-20T15:35:29;7.40;4.10
22532;DHT22;11432;46.924;7.114;2022-12-20T15:37:55;7.30;1.90
22532;DHT22;11432;46.924;7.114;2022-12-20T15:40:21;7.20;3.30
22532;DHT22;11432;46.924;7.114;2022-12-20T15:42:46;7.20;14.30
22532;DHT22;11432;46.924;7.114;2022-12-20T15:45:13;7.10;23.60
22532;DHT22;11432;46.924;7.114;2022-12-20T15:47:39;7.00;35.30
22532;DHT22;11432;46.924;7.114;2022-12-20T15:50:05;7.00;48.30
22532;DHT22;11432;46.924;7.114;2022-12-20T15:52:31;6.90;71.70
22532;DHT22;11432;46.924;7.114;2022-12-20T15:54:57;6.80;80.20
22532;DHT22;11432;46.924;7.114;2022-12-20T15:57:22;6.70;99.20
22532;DHT22;11432;46.924;7.114;2022-12-20T15:59:48;6.60;99.90
22532;DHT22;11432;46.924;7.114;2022-12-20T16:02:23;6.60;99.90
22532;DHT22;11432;46.924;7.114;2022-12-20T16:04:49;6.50;93.40
22532;DHT22;11432;46.924;7.114;2022-12-20T16:07:15;6.50;90.00
22532;DHT22;11432;46.924;7.114;2022-12-20T16:09:41;6.40;77.00
22532;DHT22;11432;46.924;7.114;2022-12-20T16:12:25;6.40;95.80
22532;DHT22;11432;46.924;7.114;2022-12-20T16:14:51;6.40;55.90
22532;DHT22;11432;46.924;7.114;2022-12-20T16:17:17;6.50;28.20
22532;DHT22;11432;46.924;7.114;2022-12-20T16:19:43;6.60;11.40
22532;DHT22;11432;46.924;7.114;2022-12-20T16:22:19;6.60;10.70
22532;DHT22;11432;46.924;7.114;2022-12-20T16:24:46;6.60;5.70
22532;DHT22;11432;46.924;7.114;2022-12-20T16:27:13;6.50;11.00
22532;DHT22;11432;46.924;7.114;2022-12-20T16:29:38;6.50;14.30
22532;DHT22;11432;46.924;7.114;2022-12-20T16:32:16;6.40;29.90
22532;DHT22;11432;46.924;7.114;2022-12-20T16:34:42;6.50;32.10
22532;DHT22;11432;46.924;7.114;2022-12-20T16:37:08;6.50;38.40
22532;DHT22;11432;46.924;7.114;2022-12-20T16:39:36;6.50;34.80
22532;DHT22;11432;46.924;7.114;2022-12-20T16:42:01;6.40;30.50
22532;DHT22;11432;46.924;7.114;2022-12-20T16:44:27;6.40;42.30
22532;DHT22;11432;46.924;7.114;2022-12-20T16:46:52;6.40;61.50
22532;DHT22;11432;46.924;7.114;2022-12-20T16:49:18;6.30;65.10
22532;DHT22;11432;46.924;7.114;2022-12-20T16:51:45;6.40;45.80
22532;DHT22;11432;46.924;7.114;2022-12-20T16:54:12;6.30;42.10
22532;DHT22;11432;46.924;7.114;2022-12-20T16:56:38;6.30;50.90
22532;DHT22;11432;46.924;7.114;2022-12-20T16:59:05;6.30;73.20
22532;DHT22;11432;46.924;7.114;2022-12-20T17:01:34;6.30;62.50
22532;DHT22;11432;46.924;7.114;2022-12-20T17:04:00;6.40;70.20
22532;DHT22;11432;46.924;7.114;2022-12-20T17:06:26;6.40;53.70
22532;DHT22;11432;46.924;7.114;2022-12-20T17:08:51;6.30;81.20
22532;DHT22;11432;46.924;7.114;2022-12-20T17:11:28;6.30;67.50
22532;DHT22;11432;46.924;7.114;2022-12-20T17:13:55;6.30;75.80
22532;DHT22;11432;46.924;7.114;2022-12-20T17:16:22;6.20;83.90
22532;DHT22;11432;46.924;7.114;2022-12-20T17:18:49;6.20;95.80
22532;DHT22;11432;46.924;7.114;2022-12-20T17:21:28;6.20;96.70
22532;DHT22;11432;46.924;7.114;2022-12-20T17:23:56;6.20;94.30
22532;DHT22;11432;46.924;7.114;2022-12-20T17:26:24;6.10;94.30
22532;DHT22;11432;46.924;7.114;2022-12-20T17:28:51;6.10;93.50
22532;DHT22;11432;46.924;7.114;2022-12-20T17:31:30;6.00;99.90
22532;DHT22;11432;46.924;7.114;2022-12-20T17:34:00;6.00;99.90
22532;DHT22;11432;46.924;7.114;2022-12-20T17:36:26;6.00;99.90
22532;DHT22;11432;46.924;7.114;2022-12-20T17:38:52;6.00;99.90
22532;DHT22;11432;46.924;7.114;2022-12-20T17:43:50;6.00;99.90
22532;DHT22;11432;46.924;7.114;2022-12-20T17:46:16;6.00;99.90
22532;DHT22;11432;46.924;7.114;2022-12-20T17:48:42;5.90;99.90
22532;DHT22;11432;46.924;7.114;2022-12-20T17:51:20;5.90;99.90
22532;DHT22;11432;46.924;7.114;2022-12-20T17:53:49;5.90;99.90
22532;DHT22;11432;46.924;7.114;2022-12-20T17:56:16;5.80;99.90
22532;DHT22;11432;46.924;7.114;2022-12-20T17:58:43;5.80;99.90
22532;DHT22;11432;46.924;7.114;2022-12-20T18:01:29;5.80;99.90
22532;DHT22;11432;46.924;7.114;2022-12-20T18:03:57;5.70;99.90
22532;DHT22;11432;46.924;7.114;2022-12-20T18:06:23;5.60;99.90
22532;DHT22;11432;46.924;7.114;2022-12-20T18:08:51;5.60;99.90
22532;DHT22;11432;46.924;7.114;2022-12-20T18:11:17;5.60;99.90
22532;DHT22;11432;46.924;7.114;2022-12-20T18:13:44;5.60;99.90
22532;DHT22;11432;46.924;7.114;2022-12-20T18:16:11;5.80;99.90
22532;DHT22;11432;46.924;7.114;2022-12-20T18:18:37;5.70;99.90
22532;DHT22;11432;46.924;7.114;2022-12-20T18:21:05;5.60;99.90
22532;DHT22;11432;46.924;7.114;2022-12-20T18:23:32;5.40;99.90
22532;DHT22;11432;46.924;7.114;2022-12-20T18:26:24;5.40;99.90
22532;DHT22;11432;46.924;7.114;2022-12-20T18:28:54;5.40;99.90